sensor_id;sensor_type;location;lat;lon;timestamp;P1;durP1;ratioP1;P2;durP2;ratioP2
18166;SDS011;9208;42.688;23.404;2023-07-29T00:01:10;4.43;;;4.03;;
18166;SDS011;9208;42.688;23.404;2023-07-29T00:03:36;4.97;;;3.90;;
18166;SDS011;9208;42.688;23.404;2023-07-29T00:06:01;4.37;;;3.97;;
18166;SDS011;9208;42.688;23.404;2023-07-29T00:08:26;4.73;;;3.97;;
18166;SDS011;9208;42.688;23.404;2023-07-29T00:10:51;4.87;;;4.27;;
18166;SDS011;9208;42.688;23.404;2023-07-29T00:13:17;4.07;;;3.60;;
18166;SDS011;9208;42.688;23.404;2023-07-29T00:15:42;4.37;;;3.97;;
18166;SDS011;9208;42.688;23.404;2023-07-29T00:18:07;6.63;;;4.17;;
18166;SDS011;9208;42.688;23.404;2023-07-29T00:20:33;4.67;;;4.20;;
18166;SDS011;9208;42.688;23.404;2023-07-29T00:22:58;4.27;;;3.87;;
18166;SDS011;9208;42.688;23.404;2023-07-29T00:25:24;5.63;;;4.03;;
18166;SDS011;9208;42.688;23.404;2023-07-29T00:27:49;4.17;;;3.80;;
18166;SDS011;9208;42.688;23.404;2023-07-29T00:30:14;3.77;;;3.47;;
18166;SDS011;9208;42.688;23.404;2023-07-29T00:32:39;4.57;;;3.67;;
18166;SDS011;9208;42.688;23.404;2023-07-29T00:35:05;4.10;;;3.70;;
18166;SDS011;9208;42.688;23.404;2023-07-29T00:37:31;3.47;;;3.20;;
18166;SDS011;9208;42.688;23.404;2023-07-29T00:39:56;4.87;;;3.80;;
18166;SDS011;9208;42.688;23.404;2023-07-29T00:42:22;4.17;;;3.23;;
18166;SDS011;9208;42.688;23.404;2023-07-29T00:44:47;3.57;;;3.37;;
18166;SDS011;9208;42.688;23.404;2023-07-29T00:47:12;4.73;;;3.10;;
18166;SDS011;9208;42.688;23.404;2023-07-29T00:49:40;4.10;;;3.73;;
18166;SDS011;9208;42.688;23.404;2023-07-29T00:52:05;3.70;;;3.40;;
18166;SDS011;9208;42.688;23.404;2023-07-29T00:54:30;4.67;;;3.47;;
18166;SDS011;9208;42.688;23.404;2023-07-29T00:56:56;3.50;;;3.20;;
18166;SDS011;9208;42.688;23.404;2023-07-29T00:59:21;3.50;;;3.20;;
18166;SDS011;9208;42.688;23.404;2023-07-29T01:01:47;3.93;;;3.53;;
18166;SDS011;9208;42.688;23.404;2023-07-29T01:04:16;4.17;;;3.77;;
18166;SDS011;9208;42.688;23.404;2023-07-29T01:06:44;3.70;;;3.40;;
18166;SDS011;9208;42.688;23.404;2023-07-29T01:09:18;4.13;;;3.47;;
18166;SDS011;9208;42.688;23.404;2023-07-29T01:11:54;7.07;;;4.07;;
18166;SDS011;9208;42.688;23.404;2023-07-29T01:16:52;4.70;;;4.30;;
18166;SDS011;9208;42.688;23.404;2023-07-29T01:20:00;4.87;;;4.30;;
18166;SDS011;9208;42.688;23.404;2023-07-29T01:22:06;6.20;;;3.90;;
18166;SDS011;9208;42.688;23.404;2023-07-29T01:24:32;6.10;;;4.00;;
18166;SDS011;9208;42.688;23.404;2023-07-29T01:26:58;4.63;;;4.03;;
18166;SDS011;9208;42.688;23.404;2023-07-29T01:29:23;5.27;;;4.50;;
18166;SDS011;9208;42.688;23.404;2023-07-29T01:31:48;5.73;;;4.87;;
18166;SDS011;9208;42.688;23.404;2023-07-29T01:34:18;5.77;;;5.17;;
18166;SDS011;9208;42.688;23.404;2023-07-29T01:36:48;5.73;;;4.77;;
18166;SDS011;9208;42.688;23.404;2023-07-29T01:39:16;6.97;;;4.40;;
18166;SDS011;9208;42.688;23.404;2023-07-29T01:41:41;4.87;;;4.47;;
18166;SDS011;9208;42.688;23.404;2023-07-29T01:44:08;6.27;;;4.60;;
18166;SDS011;9208;42.688;23.404;2023-07-29T01:46:34;5.40;;;4.77;;
18166;SDS011;9208;42.688;23.404;2023-07-29T01:49:00;6.63;;;4.90;;
18166;SDS011;9208;42.688;23.404;2023-07-29T01:51:25;6.33;;;4.80;;
18166;SDS011;9208;42.688;23.404;2023-07-29T01:53:50;6.63;;;4.63;;
18166;SDS011;9208;42.688;23.404;2023-07-29T01:56:15;5.17;;;4.67;;
18166;SDS011;9208;42.688;23.404;2023-07-29T01:58:41;4.23;;;3.80;;
18166;SDS011;9208;42.688;23.404;2023-07-29T02:01:06;5.70;;;4.27;;
18166;SDS011;9208;42.688;23.404;2023-07-29T02:03:31;4.80;;;4.30;;
18166;SDS011;9208;42.688;23.404;2023-07-29T02:05:57;5.53;;;3.90;;
18166;SDS011;9208;42.688;23.404;2023-07-29T02:08:22;4.17;;;3.50;;
18166;SDS011;9208;42.688;23.404;2023-07-29T02:10:47;3.70;;;3.40;;
18166;SDS011;9208;42.688;23.404;2023-07-29T02:13:14;4.33;;;3.30;;
18166;SDS011;9208;42.688;23.404;2023-07-29T02:15:40;3.37;;;3.13;;
18166;SDS011;9208;42.688;23.404;2023-07-29T02:18:05;3.80;;;3.50;;
18166;SDS011;9208;42.688;23.404;2023-07-29T02:20:31;3.80;;;3.40;;
18166;SDS011;9208;42.688;23.404;2023-07-29T02:22:56;5.47;;;3.70;;
18166;SDS011;9208;42.688;23.404;2023-07-29T02:25:22;3.97;;;3.57;;
18166;SDS011;9208;42.688;23.404;2023-07-29T02:27:47;4.07;;;3.67;;
18166;SDS011;9208;42.688;23.404;2023-07-29T02:30:12;5.30;;;4.03;;
18166;SDS011;9208;42.688;23.404;2023-07-29T02:32:37;4.60;;;4.20;;
18166;SDS011;9208;42.688;23.404;2023-07-29T02:35:03;6.10;;;3.73;;
18166;SDS011;9208;42.688;23.404;2023-07-29T02:37:28;5.13;;;3.60;;
18166;SDS011;9208;42.688;23.404;2023-07-29T02:39:53;5.37;;;3.70;;
18166;SDS011;9208;42.688;23.404;2023-07-29T02:42:19;5.40;;;4.30;;
18166;SDS011;9208;42.688;23.404;2023-07-29T02:44:44;5.43;;;4.07;;
18166;SDS011;9208;42.688;23.404;2023-07-29T02:47:09;4.20;;;3.80;;
18166;SDS011;9208;42.688;23.404;2023-07-29T02:49:35;4.87;;;3.90;;
18166;SDS011;9208;42.688;23.404;2023-07-29T02:52:00;4.40;;;4.00;;
18166;SDS011;9208;42.688;23.404;2023-07-29T02:54:25;5.57;;;3.47;;
18166;SDS011;9208;42.688;23.404;2023-07-29T02:56:51;4.20;;;3.47;;
18166;SDS011;9208;42.688;23.404;2023-07-29T02:59:16;4.80;;;3.77;;
18166;SDS011;9208;42.688;23.404;2023-07-29T03:01:42;3.97;;;3.53;;
18166;SDS011;9208;42.688;23.404;2023-07-29T03:04:07;4.23;;;3.57;;
18166;SDS011;9208;42.688;23.404;2023-07-29T03:06:33;3.87;;;3.17;;
18166;SDS011;9208;42.688;23.404;2023-07-29T03:08:58;4.27;;;3.90;;
18166;SDS011;9208;42.688;23.404;2023-07-29T03:11:23;4.03;;;3.63;;
18166;SDS011;9208;42.688;23.404;2023-07-29T03:13:48;4.97;;;3.50;;
18166;SDS011;9208;42.688;23.404;2023-07-29T03:16:15;4.00;;;3.40;;
18166;SDS011;9208;42.688;23.404;2023-07-29T03:18:41;4.10;;;3.70;;
18166;SDS011;9208;42.688;23.404;2023-07-29T03:21:06;4.07;;;3.67;;
18166;SDS011;9208;42.688;23.404;2023-07-29T03:23:32;4.03;;;3.70;;
18166;SDS011;9208;42.688;23.404;2023-07-29T03:25:58;3.30;;;3.00;;
18166;SDS011;9208;42.688;23.404;2023-07-29T03:28:27;4.00;;;3.70;;
18166;SDS011;9208;42.688;23.404;2023-07-29T03:30:53;3.93;;;3.63;;
18166;SDS011;9208;42.688;23.404;2023-07-29T03:33:19;3.60;;;3.30;;
18166;SDS011;9208;42.688;23.404;2023-07-29T03:35:44;3.87;;;3.57;;
18166;SDS011;9208;42.688;23.404;2023-07-29T03:38:10;4.00;;;3.60;;
18166;SDS011;9208;42.688;23.404;2023-07-29T03:40:39;4.17;;;3.70;;
18166;SDS011;9208;42.688;23.404;2023-07-29T03:43:04;3.53;;;3.23;;
18166;SDS011;9208;42.688;23.404;2023-07-29T03:45:30;3.80;;;3.50;;
18166;SDS011;9208;42.688;23.404;2023-07-29T03:47:55;3.70;;;3.30;;
18166;SDS011;9208;42.688;23.404;2023-07-29T03:50:21;3.50;;;3.20;;
18166;SDS011;9208;42.688;23.404;2023-07-29T03:52:46;3.67;;;3.40;;
18166;SDS011;9208;42.688;23.404;2023-07-29T03:55:11;3.93;;;3.50;;
18166;SDS011;9208;42.688;23.404;2023-07-29T03:57:37;3.50;;;3.20;;
18166;SDS011;9208;42.688;23.404;2023-07-29T04:00:02;3.70;;;3.30;;
18166;SDS011;9208;42.688;23.404;2023-07-29T04:02:28;3.53;;;3.23;;
18166;SDS011;9208;42.688;23.404;2023-07-29T04:04:53;4.40;;;3.27;;
18166;SDS011;9208;42.688;23.404;2023-07-29T04:07:19;4.37;;;3.40;;
18166;SDS011;9208;42.688;23.404;2023-07-29T04:09:47;3.83;;;3.53;;
18166;SDS011;9208;42.688;23.404;2023-07-29T04:12:12;3.47;;;3.23;;
18166;SDS011;9208;42.688;23.404;2023-07-29T04:14:37;3.50;;;3.20;;
18166;SDS011;9208;42.688;23.404;2023-07-29T04:17:03;3.40;;;3.10;;
18166;SDS011;9208;42.688;23.404;2023-07-29T04:19:28;3.20;;;2.97;;
18166;SDS011;9208;42.688;23.404;2023-07-29T04:21:53;4.83;;;4.23;;
18166;SDS011;9208;42.688;23.404;2023-07-29T04:24:19;4.30;;;3.53;;
18166;SDS011;9208;42.688;23.404;2023-07-29T04:26:45;4.33;;;3.77;;
18166;SDS011;9208;42.688;23.404;2023-07-29T04:29:11;3.87;;;3.40;;
18166;SDS011;9208;42.688;23.404;2023-07-29T04:31:36;4.13;;;3.43;;
18166;SDS011;9208;42.688;23.404;2023-07-29T04:34:01;3.20;;;2.97;;
18166;SDS011;9208;42.688;23.404;2023-07-29T04:36:27;3.63;;;3.00;;
18166;SDS011;9208;42.688;23.404;2023-07-29T04:38:52;3.83;;;3.20;;
18166;SDS011;9208;42.688;23.404;2023-07-29T04:41:18;3.73;;;2.90;;
18166;SDS011;9208;42.688;23.404;2023-07-29T04:43:46;3.33;;;3.00;;
18166;SDS011;9208;42.688;23.404;2023-07-29T04:46:11;3.50;;;3.20;;
18166;SDS011;9208;42.688;23.404;2023-07-29T04:48:37;3.17;;;2.97;;
18166;SDS011;9208;42.688;23.404;2023-07-29T04:51:02;3.30;;;2.93;;
18166;SDS011;9208;42.688;23.404;2023-07-29T04:53:27;3.20;;;2.90;;
18166;SDS011;9208;42.688;23.404;2023-07-29T04:55:52;3.10;;;2.90;;
18166;SDS011;9208;42.688;23.404;2023-07-29T04:58:18;2.93;;;2.73;;
18166;SDS011;9208;42.688;23.404;2023-07-29T05:00:43;3.67;;;3.37;;
18166;SDS011;9208;42.688;23.404;2023-07-29T05:03:08;3.20;;;2.93;;
18166;SDS011;9208;42.688;23.404;2023-07-29T05:05:34;3.50;;;3.20;;
18166;SDS011;9208;42.688;23.404;2023-07-29T05:07:59;3.33;;;3.03;;
18166;SDS011;9208;42.688;23.404;2023-07-29T05:10:24;3.77;;;2.93;;
18166;SDS011;9208;42.688;23.404;2023-07-29T05:12:49;3.67;;;3.03;;
18166;SDS011;9208;42.688;23.404;2023-07-29T05:15:15;4.20;;;3.90;;
18166;SDS011;9208;42.688;23.404;2023-07-29T05:17:40;4.13;;;3.83;;
18166;SDS011;9208;42.688;23.404;2023-07-29T05:20:06;4.07;;;3.70;;
18166;SDS011;9208;42.688;23.404;2023-07-29T05:22:31;4.47;;;3.73;;
18166;SDS011;9208;42.688;23.404;2023-07-29T05:24:56;3.97;;;3.53;;
18166;SDS011;9208;42.688;23.404;2023-07-29T05:27:22;4.30;;;3.97;;
18166;SDS011;9208;42.688;23.404;2023-07-29T05:29:47;4.40;;;4.00;;
18166;SDS011;9208;42.688;23.404;2023-07-29T05:32:12;4.57;;;4.17;;
18166;SDS011;9208;42.688;23.404;2023-07-29T05:34:37;5.43;;;4.03;;
18166;SDS011;9208;42.688;23.404;2023-07-29T05:37:03;4.63;;;4.07;;
18166;SDS011;9208;42.688;23.404;2023-07-29T05:39:28;4.40;;;4.00;;
18166;SDS011;9208;42.688;23.404;2023-07-29T05:41:56;5.30;;;3.70;;
18166;SDS011;9208;42.688;23.404;2023-07-29T05:44:22;4.90;;;3.80;;
18166;SDS011;9208;42.688;23.404;2023-07-29T05:46:47;4.53;;;4.10;;
18166;SDS011;9208;42.688;23.404;2023-07-29T05:49:12;4.07;;;3.77;;
18166;SDS011;9208;42.688;23.404;2023-07-29T05:51:37;6.07;;;4.00;;
18166;SDS011;9208;42.688;23.404;2023-07-29T05:54:03;4.97;;;4.30;;
18166;SDS011;9208;42.688;23.404;2023-07-29T05:56:29;6.13;;;4.33;;
18166;SDS011;9208;42.688;23.404;2023-07-29T05:58:56;8.60;;;4.70;;
18166;SDS011;9208;42.688;23.404;2023-07-29T06:01:21;5.07;;;4.10;;
18166;SDS011;9208;42.688;23.404;2023-07-29T06:03:47;5.40;;;4.03;;
18166;SDS011;9208;42.688;23.404;2023-07-29T06:06:12;7.17;;;4.87;;
18166;SDS011;9208;42.688;23.404;2023-07-29T06:08:38;5.70;;;3.93;;
18166;SDS011;9208;42.688;23.404;2023-07-29T06:11:03;6.00;;;4.57;;
18166;SDS011;9208;42.688;23.404;2023-07-29T06:13:31;5.70;;;4.77;;
18166;SDS011;9208;42.688;23.404;2023-07-29T06:15:57;11.37;;;5.20;;
18166;SDS011;9208;42.688;23.404;2023-07-29T06:18:22;7.43;;;4.07;;
18166;SDS011;9208;42.688;23.404;2023-07-29T06:20:47;5.83;;;3.77;;
18166;SDS011;9208;42.688;23.404;2023-07-29T06:23:13;4.63;;;4.10;;
18166;SDS011;9208;42.688;23.404;2023-07-29T06:25:38;4.07;;;3.77;;
18166;SDS011;9208;42.688;23.404;2023-07-29T06:28:03;7.03;;;3.90;;
18166;SDS011;9208;42.688;23.404;2023-07-29T06:30:30;7.07;;;3.87;;
18166;SDS011;9208;42.688;23.404;2023-07-29T06:32:55;4.20;;;3.80;;
18166;SDS011;9208;42.688;23.404;2023-07-29T06:35:20;5.00;;;3.93;;
18166;SDS011;9208;42.688;23.404;2023-07-29T06:37:45;4.47;;;4.03;;
18166;SDS011;9208;42.688;23.404;2023-07-29T06:40:11;5.47;;;4.20;;
18166;SDS011;9208;42.688;23.404;2023-07-29T06:42:37;4.70;;;3.73;;
18166;SDS011;9208;42.688;23.404;2023-07-29T06:45:03;4.50;;;4.10;;
18166;SDS011;9208;42.688;23.404;2023-07-29T06:47:29;5.90;;;4.20;;
18166;SDS011;9208;42.688;23.404;2023-07-29T06:49:54;6.13;;;3.90;;
18166;SDS011;9208;42.688;23.404;2023-07-29T06:52:19;4.23;;;3.93;;
18166;SDS011;9208;42.688;23.404;2023-07-29T06:54:45;5.73;;;4.00;;
18166;SDS011;9208;42.688;23.404;2023-07-29T06:57:10;4.03;;;3.63;;
18166;SDS011;9208;42.688;23.404;2023-07-29T06:59:35;4.10;;;3.70;;
18166;SDS011;9208;42.688;23.404;2023-07-29T07:02:01;4.57;;;3.87;;
18166;SDS011;9208;42.688;23.404;2023-07-29T07:04:26;3.90;;;3.50;;
18166;SDS011;9208;42.688;23.404;2023-07-29T07:06:52;4.03;;;3.67;;
18166;SDS011;9208;42.688;23.404;2023-07-29T07:09:17;3.37;;;3.10;;
18166;SDS011;9208;42.688;23.404;2023-07-29T07:11:42;3.80;;;3.50;;
18166;SDS011;9208;42.688;23.404;2023-07-29T07:14:08;4.60;;;3.97;;
18166;SDS011;9208;42.688;23.404;2023-07-29T07:16:33;3.60;;;3.37;;
18166;SDS011;9208;42.688;23.404;2023-07-29T07:19:00;3.43;;;3.13;;
18166;SDS011;9208;42.688;23.404;2023-07-29T07:21:25;3.70;;;3.40;;
18166;SDS011;9208;42.688;23.404;2023-07-29T07:23:51;4.53;;;3.37;;
18166;SDS011;9208;42.688;23.404;2023-07-29T07:26:16;4.87;;;3.60;;
18166;SDS011;9208;42.688;23.404;2023-07-29T07:28:41;3.13;;;2.90;;
18166;SDS011;9208;42.688;23.404;2023-07-29T07:31:06;3.73;;;3.43;;
18166;SDS011;9208;42.688;23.404;2023-07-29T07:33:32;4.13;;;2.93;;
18166;SDS011;9208;42.688;23.404;2023-07-29T07:35:57;5.93;;;3.27;;
18166;SDS011;9208;42.688;23.404;2023-07-29T07:38:22;3.87;;;3.13;;
18166;SDS011;9208;42.688;23.404;2023-07-29T07:40:54;3.47;;;3.27;;
18166;SDS011;9208;42.688;23.404;2023-07-29T07:43:20;3.27;;;3.07;;
18166;SDS011;9208;42.688;23.404;2023-07-29T07:45:45;4.47;;;3.27;;
18166;SDS011;9208;42.688;23.404;2023-07-29T07:48:10;3.03;;;2.83;;
18166;SDS011;9208;42.688;23.404;2023-07-29T07:50:38;3.77;;;2.87;;
18166;SDS011;9208;42.688;23.404;2023-07-29T07:53:03;3.30;;;3.00;;
18166;SDS011;9208;42.688;23.404;2023-07-29T07:55:28;8.47;;;3.50;;
18166;SDS011;9208;42.688;23.404;2023-07-29T07:57:53;5.70;;;2.43;;
18166;SDS011;9208;42.688;23.404;2023-07-29T08:00:20;4.50;;;2.90;;
18166;SDS011;9208;42.688;23.404;2023-07-29T08:02:45;3.20;;;2.90;;
18166;SDS011;9208;42.688;23.404;2023-07-29T08:05:10;3.50;;;3.20;;
18166;SDS011;9208;42.688;23.404;2023-07-29T08:07:35;3.00;;;2.80;;
18166;SDS011;9208;42.688;23.404;2023-07-29T08:10:01;3.23;;;2.93;;
18166;SDS011;9208;42.688;23.404;2023-07-29T08:12:26;4.23;;;2.90;;
18166;SDS011;9208;42.688;23.404;2023-07-29T08:14:51;4.87;;;3.40;;
18166;SDS011;9208;42.688;23.404;2023-07-29T08:17:17;5.40;;;3.00;;
18166;SDS011;9208;42.688;23.404;2023-07-29T08:19:42;3.60;;;2.70;;
18166;SDS011;9208;42.688;23.404;2023-07-29T08:22:08;2.83;;;2.57;;
18166;SDS011;9208;42.688;23.404;2023-07-29T08:24:33;3.27;;;3.07;;
18166;SDS011;9208;42.688;23.404;2023-07-29T08:26:59;3.07;;;2.43;;
18166;SDS011;9208;42.688;23.404;2023-07-29T08:29:24;3.43;;;2.57;;
18166;SDS011;9208;42.688;23.404;2023-07-29T08:31:49;3.03;;;2.73;;
18166;SDS011;9208;42.688;23.404;2023-07-29T08:34:16;2.60;;;2.40;;
18166;SDS011;9208;42.688;23.404;2023-07-29T08:36:41;3.13;;;2.40;;
18166;SDS011;9208;42.688;23.404;2023-07-29T08:39:07;4.40;;;2.70;;
18166;SDS011;9208;42.688;23.404;2023-07-29T08:41:37;3.00;;;2.73;;
18166;SDS011;9208;42.688;23.404;2023-07-29T08:44:12;2.53;;;2.17;;
18166;SDS011;9208;42.688;23.404;2023-07-29T08:46:38;5.57;;;2.77;;
18166;SDS011;9208;42.688;23.404;2023-07-29T08:49:04;3.00;;;2.67;;
18166;SDS011;9208;42.688;23.404;2023-07-29T08:51:29;2.57;;;2.33;;
18166;SDS011;9208;42.688;23.404;2023-07-29T08:53:56;2.30;;;2.10;;
18166;SDS011;9208;42.688;23.404;2023-07-29T08:56:21;2.87;;;2.40;;
18166;SDS011;9208;42.688;23.404;2023-07-29T08:58:46;5.40;;;2.60;;
18166;SDS011;9208;42.688;23.404;2023-07-29T09:01:12;4.50;;;2.80;;
18166;SDS011;9208;42.688;23.404;2023-07-29T09:03:37;3.17;;;2.50;;
18166;SDS011;9208;42.688;23.404;2023-07-29T09:06:03;2.30;;;2.10;;
18166;SDS011;9208;42.688;23.404;2023-07-29T09:08:28;2.27;;;2.00;;
18166;SDS011;9208;42.688;23.404;2023-07-29T09:10:54;2.40;;;2.20;;
18166;SDS011;9208;42.688;23.404;2023-07-29T09:13:20;2.63;;;2.10;;
18166;SDS011;9208;42.688;23.404;2023-07-29T09:15:46;4.43;;;1.97;;
18166;SDS011;9208;42.688;23.404;2023-07-29T09:18:13;2.17;;;1.90;;
18166;SDS011;9208;42.688;23.404;2023-07-29T09:20:39;2.17;;;1.97;;
18166;SDS011;9208;42.688;23.404;2023-07-29T09:23:06;2.20;;;2.10;;
18166;SDS011;9208;42.688;23.404;2023-07-29T09:25:32;2.60;;;2.23;;
18166;SDS011;9208;42.688;23.404;2023-07-29T09:28:01;2.07;;;1.73;;
18166;SDS011;9208;42.688;23.404;2023-07-29T09:30:26;4.67;;;3.67;;
18166;SDS011;9208;42.688;23.404;2023-07-29T09:32:54;2.37;;;2.17;;
18166;SDS011;9208;42.688;23.404;2023-07-29T09:35:19;3.33;;;2.67;;
18166;SDS011;9208;42.688;23.404;2023-07-29T09:37:45;1.83;;;1.73;;
18166;SDS011;9208;42.688;23.404;2023-07-29T09:40:13;2.07;;;1.97;;
18166;SDS011;9208;42.688;23.404;2023-07-29T09:42:39;3.13;;;2.00;;
18166;SDS011;9208;42.688;23.404;2023-07-29T09:45:04;5.57;;;2.80;;
18166;SDS011;9208;42.688;23.404;2023-07-29T09:47:29;3.10;;;1.77;;
18166;SDS011;9208;42.688;23.404;2023-07-29T09:49:55;2.13;;;1.80;;
18166;SDS011;9208;42.688;23.404;2023-07-29T09:52:21;2.53;;;1.90;;
18166;SDS011;9208;42.688;23.404;2023-07-29T09:54:47;1.60;;;1.50;;
18166;SDS011;9208;42.688;23.404;2023-07-29T09:57:16;1.37;;;1.27;;
18166;SDS011;9208;42.688;23.404;2023-07-29T09:59:42;1.73;;;1.60;;
18166;SDS011;9208;42.688;23.404;2023-07-29T10:02:09;1.50;;;1.40;;
18166;SDS011;9208;42.688;23.404;2023-07-29T10:04:38;2.37;;;1.40;;
18166;SDS011;9208;42.688;23.404;2023-07-29T10:07:03;1.73;;;1.40;;
18166;SDS011;9208;42.688;23.404;2023-07-29T10:09:28;2.57;;;1.80;;
18166;SDS011;9208;42.688;23.404;2023-07-29T10:11:54;3.10;;;1.47;;
18166;SDS011;9208;42.688;23.404;2023-07-29T10:14:20;1.43;;;1.33;;
18166;SDS011;9208;42.688;23.404;2023-07-29T10:16:45;2.47;;;1.30;;
18166;SDS011;9208;42.688;23.404;2023-07-29T10:19:11;1.33;;;1.17;;
18166;SDS011;9208;42.688;23.404;2023-07-29T10:21:38;1.00;;;1.00;;
18166;SDS011;9208;42.688;23.404;2023-07-29T10:24:04;1.13;;;1.10;;
18166;SDS011;9208;42.688;23.404;2023-07-29T10:26:31;2.10;;;1.23;;
18166;SDS011;9208;42.688;23.404;2023-07-29T10:28:57;1.80;;;1.10;;
18166;SDS011;9208;42.688;23.404;2023-07-29T10:31:26;0.90;;;0.90;;
18166;SDS011;9208;42.688;23.404;2023-07-29T10:33:52;1.00;;;1.00;;
18166;SDS011;9208;42.688;23.404;2023-07-29T10:36:18;1.40;;;1.30;;
18166;SDS011;9208;42.688;23.404;2023-07-29T10:38:44;1.10;;;1.00;;
18166;SDS011;9208;42.688;23.404;2023-07-29T10:41:09;1.00;;;1.00;;
18166;SDS011;9208;42.688;23.404;2023-07-29T10:43:35;1.30;;;1.20;;
18166;SDS011;9208;42.688;23.404;2023-07-29T10:48:44;1.08;;;0.95;;
18166;SDS011;9208;42.688;23.404;2023-07-29T10:53:54;1.10;;;1.00;;
18166;SDS011;9208;42.688;23.404;2023-07-29T10:56:26;1.20;;;1.13;;
18166;SDS011;9208;42.688;23.404;2023-07-29T10:58:52;1.83;;;1.30;;
18166;SDS011;9208;42.688;23.404;2023-07-29T11:01:30;1.10;;;1.10;;
18166;SDS011;9208;42.688;23.404;2023-07-29T11:12:05;1.00;;;1.00;;
18166;SDS011;9208;42.688;23.404;2023-07-29T11:14:31;0.82;;;0.82;;
18166;SDS011;9208;42.688;23.404;2023-07-29T11:16:56;1.38;;;1.30;;
18166;SDS011;9208;42.688;23.404;2023-07-29T11:19:22;1.58;;;1.20;;
18166;SDS011;9208;42.688;23.404;2023-07-29T11:21:47;1.13;;;1.10;;
18166;SDS011;9208;42.688;23.404;2023-07-29T11:24:16;1.50;;;1.40;;
18166;SDS011;9208;42.688;23.404;2023-07-29T11:26:46;1.27;;;1.00;;
18166;SDS011;9208;42.688;23.404;2023-07-29T11:29:11;1.40;;;1.00;;
18166;SDS011;9208;42.688;23.404;2023-07-29T11:31:39;1.20;;;1.10;;
18166;SDS011;9208;42.688;23.404;2023-07-29T11:34:06;1.10;;;1.00;;
18166;SDS011;9208;42.688;23.404;2023-07-29T11:36:31;0.90;;;0.90;;
18166;SDS011;9208;42.688;23.404;2023-07-29T11:38:57;0.80;;;0.73;;
18166;SDS011;9208;42.688;23.404;2023-07-29T11:41:22;1.00;;;1.00;;
18166;SDS011;9208;42.688;23.404;2023-07-29T11:43:48;1.08;;;0.70;;
18166;SDS011;9208;42.688;23.404;2023-07-29T11:46:13;0.63;;;0.63;;
18166;SDS011;9208;42.688;23.404;2023-07-29T11:48:38;0.90;;;0.90;;
18166;SDS011;9208;42.688;23.404;2023-07-29T11:51:04;2.30;;;0.90;;
18166;SDS011;9208;42.688;23.404;2023-07-29T11:53:29;1.63;;;1.00;;
18166;SDS011;9208;42.688;23.404;2023-07-29T11:55:55;3.25;;;1.10;;
18166;SDS011;9208;42.688;23.404;2023-07-29T11:58:21;1.70;;;1.00;;
18166;SDS011;9208;42.688;23.404;2023-07-29T12:00:46;1.00;;;1.00;;
18166;SDS011;9208;42.688;23.404;2023-07-29T12:03:11;9.85;;;2.08;;
18166;SDS011;9208;42.688;23.404;2023-07-29T12:05:37;1.55;;;1.00;;
18166;SDS011;9208;42.688;23.404;2023-07-29T12:08:02;1.63;;;1.20;;
18166;SDS011;9208;42.688;23.404;2023-07-29T12:10:28;1.20;;;1.10;;
18166;SDS011;9208;42.688;23.404;2023-07-29T12:12:56;2.55;;;1.20;;
18166;SDS011;9208;42.688;23.404;2023-07-29T12:15:25;1.00;;;0.90;;
18166;SDS011;9208;42.688;23.404;2023-07-29T12:17:52;1.48;;;0.90;;
18166;SDS011;9208;42.688;23.404;2023-07-29T12:20:19;0.93;;;0.90;;
18166;SDS011;9208;42.688;23.404;2023-07-29T12:22:44;0.90;;;0.90;;
18166;SDS011;9208;42.688;23.404;2023-07-29T12:25:10;0.70;;;0.70;;
18166;SDS011;9208;42.688;23.404;2023-07-29T12:27:35;1.10;;;1.10;;
18166;SDS011;9208;42.688;23.404;2023-07-29T12:30:01;0.80;;;0.80;;
18166;SDS011;9208;42.688;23.404;2023-07-29T12:32:29;1.10;;;1.00;;
18166;SDS011;9208;42.688;23.404;2023-07-29T12:34:54;1.50;;;0.90;;
18166;SDS011;9208;42.688;23.404;2023-07-29T12:37:19;1.58;;;1.02;;
18166;SDS011;9208;42.688;23.404;2023-07-29T12:39:44;4.18;;;1.42;;
18166;SDS011;9208;42.688;23.404;2023-07-29T12:42:10;1.50;;;1.40;;
18166;SDS011;9208;42.688;23.404;2023-07-29T12:44:35;1.20;;;1.10;;
18166;SDS011;9208;42.688;23.404;2023-07-29T12:47:01;1.10;;;1.00;;
18166;SDS011;9208;42.688;23.404;2023-07-29T12:49:28;1.08;;;1.02;;
18166;SDS011;9208;42.688;23.404;2023-07-29T12:51:54;1.40;;;1.30;;
18166;SDS011;9208;42.688;23.404;2023-07-29T12:54:19;1.08;;;1.08;;
18166;SDS011;9208;42.688;23.404;2023-07-29T12:56:45;1.85;;;1.50;;
18166;SDS011;9208;42.688;23.404;2023-07-29T12:59:10;2.13;;;1.50;;
18166;SDS011;9208;42.688;23.404;2023-07-29T13:01:35;2.15;;;1.55;;
18166;SDS011;9208;42.688;23.404;2023-07-29T13:04:01;2.13;;;1.48;;
18166;SDS011;9208;42.688;23.404;2023-07-29T13:06:26;1.70;;;1.60;;
18166;SDS011;9208;42.688;23.404;2023-07-29T13:08:51;2.85;;;1.50;;
18166;SDS011;9208;42.688;23.404;2023-07-29T13:11:17;1.10;;;1.10;;
18166;SDS011;9208;42.688;23.404;2023-07-29T13:13:43;1.48;;;1.38;;
18166;SDS011;9208;42.688;23.404;2023-07-29T13:16:09;3.63;;;1.30;;
18166;SDS011;9208;42.688;23.404;2023-07-29T13:18:36;1.20;;;1.20;;
18166;SDS011;9208;42.688;23.404;2023-07-29T13:21:01;2.85;;;1.52;;
18166;SDS011;9208;42.688;23.404;2023-07-29T13:23:26;3.67;;;1.70;;
18166;SDS011;9208;42.688;23.404;2023-07-29T13:25:53;1.42;;;1.33;;
18166;SDS011;9208;42.688;23.404;2023-07-29T13:28:18;1.40;;;1.30;;
18166;SDS011;9208;42.688;23.404;2023-07-29T13:30:44;7.22;;;2.60;;
18166;SDS011;9208;42.688;23.404;2023-07-29T13:33:09;4.65;;;1.85;;
18166;SDS011;9208;42.688;23.404;2023-07-29T13:35:34;1.73;;;1.42;;
18166;SDS011;9208;42.688;23.404;2023-07-29T13:38:00;2.75;;;1.58;;
18166;SDS011;9208;42.688;23.404;2023-07-29T13:40:25;1.98;;;1.52;;
18166;SDS011;9208;42.688;23.404;2023-07-29T13:42:51;1.50;;;1.40;;
18166;SDS011;9208;42.688;23.404;2023-07-29T13:45:17;2.08;;;1.67;;
18166;SDS011;9208;42.688;23.404;2023-07-29T13:47:42;1.45;;;1.35;;
18166;SDS011;9208;42.688;23.404;2023-07-29T13:50:07;1.50;;;1.40;;
18166;SDS011;9208;42.688;23.404;2023-07-29T13:52:33;1.30;;;1.30;;
18166;SDS011;9208;42.688;23.404;2023-07-29T13:54:58;1.67;;;1.52;;
18166;SDS011;9208;42.688;23.404;2023-07-29T13:57:23;1.30;;;1.30;;
18166;SDS011;9208;42.688;23.404;2023-07-29T13:59:49;3.35;;;2.22;;
18166;SDS011;9208;42.688;23.404;2023-07-29T14:02:14;1.60;;;1.50;;
18166;SDS011;9208;42.688;23.404;2023-07-29T14:04:39;1.52;;;1.42;;
18166;SDS011;9208;42.688;23.404;2023-07-29T14:07:04;2.70;;;1.55;;
18166;SDS011;9208;42.688;23.404;2023-07-29T14:09:30;1.52;;;1.20;;
18166;SDS011;9208;42.688;23.404;2023-07-29T14:11:55;1.63;;;1.52;;
18166;SDS011;9208;42.688;23.404;2023-07-29T14:14:21;1.70;;;1.60;;
18166;SDS011;9208;42.688;23.404;2023-07-29T14:16:46;1.50;;;1.40;;
18166;SDS011;9208;42.688;23.404;2023-07-29T14:19:12;1.58;;;1.48;;
18166;SDS011;9208;42.688;23.404;2023-07-29T14:21:37;2.03;;;1.30;;
18166;SDS011;9208;42.688;23.404;2023-07-29T14:24:03;1.65;;;1.27;;
18166;SDS011;9208;42.688;23.404;2023-07-29T14:26:28;1.80;;;1.38;;
18166;SDS011;9208;42.688;23.404;2023-07-29T14:28:53;2.80;;;1.48;;
18166;SDS011;9208;42.688;23.404;2023-07-29T14:31:18;1.50;;;1.40;;
18166;SDS011;9208;42.688;23.404;2023-07-29T14:33:44;4.13;;;1.30;;
18166;SDS011;9208;42.688;23.404;2023-07-29T14:36:09;4.45;;;2.10;;
18166;SDS011;9208;42.688;23.404;2023-07-29T14:38:35;1.50;;;1.40;;
18166;SDS011;9208;42.688;23.404;2023-07-29T14:41:01;2.55;;;1.38;;
18166;SDS011;9208;42.688;23.404;2023-07-29T14:43:26;1.60;;;1.50;;
18166;SDS011;9208;42.688;23.404;2023-07-29T14:45:51;1.70;;;1.60;;
18166;SDS011;9208;42.688;23.404;2023-07-29T14:48:16;3.78;;;1.40;;
18166;SDS011;9208;42.688;23.404;2023-07-29T14:50:42;1.55;;;1.45;;
18166;SDS011;9208;42.688;23.404;2023-07-29T14:53:09;1.40;;;1.33;;
18166;SDS011;9208;42.688;23.404;2023-07-29T14:55:34;1.63;;;1.30;;